createdAt,value
2019-06-08T00:01:55.688Z,14.45
2019-06-08T00:04:28.774Z,16.93
2019-06-08T00:07:01.773Z,13.50
2019-06-08T00:09:34.746Z,11.10
2019-06-08T00:12:07.948Z,15.70
2019-06-08T00:14:40.962Z,12.35
2019-06-08T00:17:30.739Z,11.88
2019-06-08T00:19:48.748Z,13.68
2019-06-08T00:22:22.041Z,12.23
2019-06-08T00:24:55.336Z,16.60
2019-06-08T00:27:28.626Z,12.40
2019-06-08T00:30:02.226Z,13.78
2019-06-08T00:32:35.526Z,15.65
2019-06-08T00:35:09.344Z,13.65
2019-06-08T00:37:42.626Z,12.37
2019-06-08T00:40:16.849Z,12.03
2019-06-08T00:42:49.828Z,13.03
2019-06-08T00:45:23.613Z,12.37
2019-06-08T00:47:56.703Z,8.70
2019-06-08T00:50:29.633Z,13.20
2019-06-08T00:53:02.612Z,13.43
2019-06-08T00:55:36.011Z,12.68
2019-06-08T00:58:09.313Z,18.67
2019-06-08T01:00:42.604Z,11.75
2019-06-08T01:03:17.601Z,15.00
2019-06-08T01:05:51.041Z,14.07
2019-06-08T01:08:25.450Z,11.40
2019-06-08T01:10:58.551Z,12.93
2019-06-08T01:13:31.639Z,18.27
2019-06-08T01:16:04.734Z,12.78
2019-06-08T01:18:37.621Z,23.38
2019-06-08T01:21:10.742Z,13.95
2019-06-08T01:23:44.213Z,22.52
2019-06-08T01:26:17.901Z,18.48
2019-06-08T01:28:50.685Z,20.23
2019-06-08T01:31:24.423Z,14.20
2019-06-08T01:33:57.585Z,15.93
2019-06-08T01:36:31.316Z,19.23
2019-06-08T01:39:06.021Z,15.43
2019-06-08T01:41:39.214Z,17.95
2019-06-08T01:44:12.311Z,13.58
2019-06-08T01:46:45.720Z,19.70
2019-06-08T01:49:19.015Z,15.75
2019-06-08T01:51:52.634Z,22.00
2019-06-08T01:54:26.923Z,22.82
2019-06-08T01:57:00.321Z,20.32
2019-06-08T01:59:34.752Z,19.32
2019-06-08T02:02:07.836Z,21.40
2019-06-08T02:04:40.917Z,19.37
2019-06-08T02:07:14.341Z,25.68
2019-06-08T02:09:47.516Z,16.40
2019-06-08T02:12:20.698Z,22.87
2019-06-08T02:14:53.791Z,29.50
2019-06-08T02:17:27.345Z,22.10
2019-06-08T02:20:00.279Z,27.55
2019-06-08T02:22:33.580Z,17.27
2019-06-08T02:25:07.888Z,23.70
2019-06-08T02:27:41.029Z,14.83
2019-06-08T02:30:17.352Z,17.92
2019-06-08T02:32:50.550Z,18.70
2019-06-08T02:35:23.937Z,16.02
2019-06-08T02:37:57.433Z,19.02
2019-06-08T02:40:32.473Z,22.42
2019-06-08T02:43:05.011Z,16.73
2019-06-08T02:45:40.211Z,19.92
2019-06-08T02:48:13.278Z,16.20
2019-06-08T02:50:55.487Z,20.85
2019-06-08T02:53:29.423Z,18.52
2019-06-08T02:56:03.514Z,15.70
2019-06-08T02:58:39.043Z,15.35
2019-06-08T03:01:11.707Z,17.62
2019-06-08T03:03:44.815Z,21.65
2019-06-08T03:06:17.806Z,20.10
2019-06-08T03:08:51.348Z,28.12
2019-06-08T03:11:24.311Z,45.00
2019-06-08T03:13:59.138Z,22.65
2019-06-08T03:16:33.329Z,13.53
2019-06-08T03:19:20.719Z,10.75
2019-06-08T03:21:42.445Z,14.63
2019-06-08T03:24:18.260Z,13.50
2019-06-08T03:26:51.546Z,14.28
2019-06-08T03:29:24.642Z,15.63
2019-06-08T03:31:58.769Z,9.78
2019-06-08T03:34:34.714Z,17.73
2019-06-08T03:37:06.671Z,13.03
2019-06-08T03:39:41.384Z,17.48
2019-06-08T03:42:15.005Z,15.18
2019-06-08T03:44:48.400Z,14.93
2019-06-08T03:47:21.691Z,15.83
2019-06-08T03:49:57.519Z,17.27
2019-06-08T03:52:30.019Z,22.52
2019-06-08T03:55:03.489Z,16.27
2019-06-08T03:57:38.044Z,14.23
2019-06-08T04:00:13.329Z,19.50
2019-06-08T04:02:46.743Z,25.43
2019-06-08T04:05:19.934Z,23.98
2019-06-08T04:07:53.162Z,47.83
2019-06-08T04:10:26.560Z,24.77
2019-06-08T04:12:59.443Z,19.32
2019-06-08T04:15:32.543Z,17.80
2019-06-08T04:18:05.741Z,15.78
2019-06-08T04:20:40.259Z,10.78
2019-06-08T04:23:13.750Z,16.37
2019-06-08T04:25:47.781Z,12.05
2019-06-08T04:28:20.746Z,17.62
2019-06-08T04:30:54.048Z,19.80
2019-06-08T04:33:27.133Z,19.65
2019-06-08T04:36:00.324Z,15.63
2019-06-08T04:38:33.719Z,22.17
2019-06-08T04:41:06.913Z,15.43
2019-06-08T04:43:42.624Z,15.60
2019-06-08T04:46:16.779Z,24.57
2019-06-08T04:48:50.314Z,13.70
2019-06-08T04:51:23.486Z,18.23
2019-06-08T04:53:56.760Z,19.70
2019-06-08T04:56:29.965Z,20.35
2019-06-08T04:59:02.934Z,15.95
2019-06-08T05:01:36.250Z,15.75
2019-06-08T05:04:09.447Z,13.88
2019-06-08T05:06:42.973Z,18.62
2019-06-08T05:09:16.341Z,32.15
2019-06-08T05:11:49.894Z,22.98
2019-06-08T05:14:23.157Z,28.75
2019-06-08T05:16:56.228Z,22.13
2019-06-08T05:19:29.469Z,18.95
2019-06-08T05:22:02.418Z,18.17
2019-06-08T05:24:35.221Z,15.88
2019-06-08T05:27:08.515Z,12.90
2019-06-08T05:29:41.715Z,10.78
2019-06-08T05:32:15.218Z,11.73
2019-06-08T05:34:49.716Z,15.68
2019-06-08T05:37:22.757Z,9.25
2019-06-08T05:39:56.099Z,14.80
2019-06-08T05:42:29.105Z,12.10
2019-06-08T05:45:02.422Z,8.83
2019-06-08T05:47:35.600Z,13.62
2019-06-08T05:50:11.450Z,12.58
2019-06-08T05:52:45.811Z,8.70
2019-06-08T05:55:18.749Z,8.78
2019-06-08T05:57:52.168Z,9.85
2019-06-08T06:00:25.053Z,9.95
2019-06-08T06:02:58.157Z,13.98
2019-06-08T06:05:31.133Z,15.23
2019-06-08T06:08:16.137Z,13.00
2019-06-08T06:10:38.859Z,9.98
2019-06-08T06:13:12.167Z,12.95
2019-06-08T06:15:47.215Z,14.43
2019-06-08T06:18:20.147Z,11.10
2019-06-08T06:21:07.414Z,11.57
2019-06-08T06:23:28.303Z,12.73
2019-06-08T06:26:01.098Z,15.48
2019-06-08T06:28:34.588Z,9.83
2019-06-08T06:31:07.888Z,12.88
2019-06-08T06:33:41.987Z,12.53
2019-06-08T06:36:15.288Z,12.13
2019-06-08T06:38:50.101Z,10.58
2019-06-08T06:41:23.208Z,19.62
2019-06-08T06:43:56.193Z,14.55
2019-06-08T06:46:29.143Z,13.65
2019-06-08T06:49:02.630Z,14.43
2019-06-08T06:51:35.833Z,11.48
2019-06-08T06:54:09.531Z,20.37
2019-06-08T06:56:43.101Z,16.25
2019-06-08T06:59:16.257Z,17.00
2019-06-08T07:01:54.109Z,16.30
2019-06-08T07:04:24.254Z,8.38
2019-06-08T07:06:58.764Z,12.90
2019-06-08T07:09:32.102Z,16.45
2019-06-08T07:12:05.504Z,12.80
2019-06-08T07:14:38.532Z,17.30
2019-06-08T07:17:11.568Z,13.20
2019-06-08T07:19:44.458Z,13.68
2019-06-08T07:22:17.394Z,11.83
2019-06-08T07:24:50.807Z,11.00
2019-06-08T07:27:24.092Z,16.90
2019-06-08T07:29:57.489Z,12.75
2019-06-08T07:32:30.579Z,12.33
2019-06-08T07:35:04.618Z,12.93
2019-06-08T07:37:37.593Z,9.38
2019-06-08T07:40:10.887Z,8.53
2019-06-08T07:42:43.987Z,9.08
2019-06-08T07:45:17.067Z,11.00
2019-06-08T07:47:50.164Z,10.88
2019-06-08T07:50:23.495Z,13.83
2019-06-08T07:52:56.848Z,10.35
2019-06-08T07:55:30.142Z,12.25
2019-06-08T07:58:03.636Z,11.75
2019-06-08T08:00:36.936Z,10.98
2019-06-08T08:03:09.820Z,8.08
2019-06-08T08:05:43.440Z,6.90
2019-06-08T08:08:16.529Z,13.00
2019-06-08T08:10:50.365Z,12.73
2019-06-08T08:13:24.462Z,12.37
2019-06-08T08:15:59.374Z,9.20
2019-06-08T08:18:33.905Z,14.75
2019-06-08T08:21:18.818Z,8.35
2019-06-08T08:23:41.625Z,10.43
2019-06-08T08:26:14.820Z,8.28
2019-06-08T08:28:49.994Z,8.75
2019-06-08T08:31:23.971Z,9.43
2019-06-08T08:34:03.059Z,12.58
2019-06-08T08:36:33.343Z,17.07
2019-06-08T08:39:08.791Z,10.35
2019-06-08T08:41:42.056Z,10.15
2019-06-08T08:44:17.434Z,10.38
2019-06-08T08:46:51.402Z,12.63
2019-06-08T08:49:27.969Z,17.65
2019-06-08T08:52:01.856Z,17.15
2019-06-08T08:54:34.892Z,8.53
2019-06-08T08:57:08.456Z,9.58
2019-06-08T08:59:41.705Z,7.37
2019-06-08T09:02:14.734Z,5.50
2019-06-08T09:04:48.216Z,11.08
2019-06-08T09:07:21.303Z,8.70
2019-06-08T09:09:56.153Z,7.80
2019-06-08T09:12:29.324Z,7.03
2019-06-08T09:15:04.018Z,9.78
2019-06-08T09:17:38.769Z,7.78
2019-06-08T09:20:15.420Z,6.42
2019-06-08T09:22:53.710Z,5.92
2019-06-08T09:25:21.635Z,6.67
2019-06-08T09:27:56.389Z,8.48
2019-06-08T09:30:29.480Z,6.00
2019-06-08T09:33:04.195Z,7.75
2019-06-08T09:35:38.319Z,11.10
2019-06-08T09:38:11.835Z,4.58
2019-06-08T09:40:45.019Z,4.53
2019-06-08T09:43:19.029Z,4.15
2019-06-08T09:45:53.686Z,5.95
2019-06-08T09:48:28.870Z,7.05
2019-06-08T09:51:03.927Z,5.45
2019-06-08T09:53:40.468Z,6.40
2019-06-08T09:56:11.027Z,7.50
2019-06-08T09:58:44.026Z,8.85
2019-06-08T10:01:18.444Z,6.03
2019-06-08T10:03:51.650Z,8.73
2019-06-08T10:06:24.749Z,5.83
2019-06-08T10:08:58.546Z,4.58
2019-06-08T10:11:31.858Z,7.10
2019-06-08T10:14:09.236Z,7.87
2019-06-08T10:16:39.905Z,5.25
2019-06-08T10:19:13.375Z,6.62
2019-06-08T10:21:48.174Z,8.35
2019-06-08T10:24:21.298Z,12.07
2019-06-08T10:26:55.179Z,6.05
2019-06-08T10:29:28.529Z,6.90
2019-06-08T10:32:01.933Z,7.53
2019-06-08T10:34:34.987Z,5.05
2019-06-08T10:37:12.852Z,4.12
2019-06-08T10:39:42.817Z,9.08
2019-06-08T10:42:18.326Z,5.55
2019-06-08T10:44:51.523Z,6.28
2019-06-08T10:47:29.544Z,4.85
2019-06-08T10:50:06.382Z,6.28
2019-06-08T10:52:34.582Z,8.23
2019-06-08T10:55:11.599Z,5.90
2019-06-08T10:57:43.443Z,6.12
2019-06-08T11:00:24.558Z,7.25
2019-06-08T11:03:01.590Z,5.58
2019-06-08T11:05:33.379Z,6.17
2019-06-08T11:08:13.504Z,10.48
2019-06-08T11:10:41.484Z,5.78
2019-06-08T11:13:15.316Z,8.85
2019-06-08T11:15:49.200Z,6.60
2019-06-08T11:18:22.183Z,7.10
2019-06-08T11:20:57.970Z,5.03
2019-06-08T11:23:29.906Z,6.85
2019-06-08T11:26:05.410Z,5.75
2019-06-08T11:28:38.342Z,7.62
2019-06-08T11:31:15.779Z,5.33
2019-06-08T11:33:48.825Z,4.62
2019-06-08T11:36:21.013Z,12.28
2019-06-08T11:38:54.191Z,5.42
2019-06-08T11:41:27.906Z,9.65
2019-06-08T11:44:01.990Z,8.60
2019-06-08T11:46:38.111Z,6.53
2019-06-08T11:49:13.471Z,5.95
2019-06-08T11:51:47.703Z,7.55
2019-06-08T11:54:33.158Z,6.78
2019-06-08T11:56:57.412Z,6.45
2019-06-08T11:59:30.041Z,5.65
2019-06-08T12:02:03.552Z,6.62
2019-06-08T12:04:38.418Z,5.42
2019-06-08T12:07:13.929Z,7.90
2019-06-08T12:09:49.930Z,4.22
2019-06-08T12:12:21.805Z,5.87
2019-06-08T12:14:55.122Z,7.78
2019-06-08T12:17:28.410Z,10.05
2019-06-08T12:20:03.365Z,6.47
2019-06-08T12:22:37.680Z,7.47
2019-06-08T12:25:12.230Z,6.53
2019-06-08T12:27:45.295Z,4.55
2019-06-08T12:30:25.594Z,9.18
2019-06-08T12:32:52.808Z,9.08
2019-06-08T12:35:28.253Z,7.70
2019-06-08T12:38:01.157Z,5.85
2019-06-08T12:40:34.349Z,3.75
2019-06-08T12:43:09.972Z,4.70
2019-06-08T12:45:42.288Z,5.95
2019-06-08T12:48:18.407Z,7.78
2019-06-08T12:50:50.203Z,7.00
2019-06-08T12:53:23.397Z,5.05
2019-06-08T12:55:57.894Z,4.12
2019-06-08T12:58:31.116Z,4.53
2019-06-08T13:01:04.308Z,5.42
2019-06-08T13:03:37.843Z,8.83
2019-06-08T13:06:12.496Z,5.03
2019-06-08T13:08:47.763Z,6.22
2019-06-08T13:11:21.561Z,4.17
2019-06-08T13:13:54.922Z,5.17
2019-06-08T13:16:28.471Z,4.12
2019-06-08T13:19:01.520Z,4.72
2019-06-08T13:21:35.747Z,8.40
2019-06-08T13:24:10.189Z,2.95
2019-06-08T13:26:43.815Z,3.10
2019-06-08T13:29:19.803Z,4.92
2019-06-08T13:31:51.358Z,4.17
2019-06-08T13:34:24.769Z,5.67
2019-06-08T13:36:57.763Z,4.20
2019-06-08T13:39:31.231Z,6.22
2019-06-08T13:42:04.316Z,3.65
2019-06-08T13:44:37.829Z,6.12
2019-06-08T13:47:12.567Z,5.87
2019-06-08T13:49:47.985Z,4.03
2019-06-08T13:52:23.603Z,5.40
2019-06-08T13:54:58.203Z,10.53
2019-06-08T13:57:30.656Z,6.37
2019-06-08T14:00:08.021Z,5.45
2019-06-08T14:02:41.342Z,11.22
2019-06-08T14:05:25.705Z,5.12
2019-06-08T14:07:54.718Z,6.17
2019-06-08T14:10:38.564Z,6.85
2019-06-08T14:13:11.944Z,6.42
2019-06-08T14:15:45.554Z,9.53
2019-06-08T14:18:23.350Z,8.60
2019-06-08T14:20:54.612Z,4.05
2019-06-08T14:23:27.796Z,10.32
2019-06-08T14:26:01.066Z,4.40
2019-06-08T14:28:34.376Z,9.73
2019-06-08T14:31:10.934Z,24.87
2019-06-08T14:33:43.261Z,7.05
2019-06-08T14:36:19.724Z,4.35
2019-06-08T14:38:51.168Z,9.30
2019-06-08T14:41:24.624Z,6.58
2019-06-08T14:43:58.570Z,4.47
2019-06-08T14:46:31.501Z,4.25
2019-06-08T14:49:04.989Z,4.87
2019-06-08T14:51:50.778Z,5.00
2019-06-08T14:54:27.217Z,4.62
2019-06-08T14:56:58.610Z,6.83
2019-06-08T14:59:31.869Z,3.62
2019-06-08T15:02:07.468Z,6.45
2019-06-08T15:04:40.125Z,20.23
2019-06-08T15:07:13.207Z,23.50
2019-06-08T15:09:47.994Z,17.82
2019-06-08T15:12:21.461Z,14.13
2019-06-08T15:14:58.043Z,7.58
2019-06-08T15:17:32.172Z,7.70
2019-06-08T15:20:08.855Z,8.93
2019-06-08T15:22:42.963Z,7.42
2019-06-08T15:25:18.386Z,7.65
2019-06-08T15:27:50.760Z,6.95
2019-06-08T15:30:25.118Z,5.67
2019-06-08T15:33:00.728Z,9.33
2019-06-08T15:35:33.921Z,5.97
2019-06-08T15:38:08.456Z,7.15
2019-06-08T15:40:41.543Z,5.90
2019-06-08T15:43:14.830Z,6.42
2019-06-08T15:45:51.204Z,6.15
2019-06-08T15:48:22.764Z,8.73
2019-06-08T15:50:58.459Z,6.78
2019-06-08T15:53:32.385Z,6.03
2019-06-08T15:56:05.226Z,5.90
2019-06-08T15:58:40.503Z,8.55
2019-06-08T16:01:14.798Z,5.35
2019-06-08T16:03:47.946Z,7.87
2019-06-08T16:06:21.143Z,9.75
2019-06-08T16:08:54.432Z,9.90
2019-06-08T16:11:28.201Z,10.43
2019-06-08T16:14:01.122Z,9.55
2019-06-08T16:16:35.225Z,10.58
2019-06-08T16:19:08.359Z,8.93
2019-06-08T16:21:43.194Z,7.78
2019-06-08T16:24:16.589Z,4.83
2019-06-08T16:26:53.500Z,9.05
2019-06-08T16:29:25.204Z,6.97
2019-06-08T16:31:58.467Z,7.10
2019-06-08T16:34:31.765Z,6.90
2019-06-08T16:37:05.269Z,5.28
2019-06-08T16:39:39.885Z,8.20
2019-06-08T16:42:12.978Z,14.30
2019-06-08T16:44:46.073Z,6.47
2019-06-08T16:47:19.384Z,22.77
2019-06-08T16:49:52.265Z,15.35
2019-06-08T16:52:25.152Z,7.08
2019-06-08T16:54:58.419Z,8.25
2019-06-08T16:57:36.051Z,6.87
2019-06-08T17:02:42.848Z,9.63
2019-06-08T17:05:16.051Z,10.18
2019-06-08T17:07:49.137Z,9.50
2019-06-08T17:10:22.367Z,8.93
2019-06-08T17:12:55.909Z,9.95
2019-06-08T17:15:30.172Z,7.97
2019-06-08T17:18:03.245Z,11.83
2019-06-08T17:20:36.402Z,10.45
2019-06-08T17:23:09.793Z,12.58
2019-06-08T17:25:42.804Z,10.30
2019-06-08T17:28:15.994Z,10.13
2019-06-08T17:30:49.192Z,10.53
2019-06-08T17:33:22.494Z,6.87
2019-06-08T17:35:55.456Z,10.63
2019-06-08T17:38:28.894Z,9.45
2019-06-08T17:41:01.974Z,10.00
2019-06-08T17:43:36.085Z,14.18
2019-06-08T17:46:09.172Z,11.68
2019-06-08T17:48:45.232Z,13.13
2019-06-08T17:51:18.703Z,11.53
2019-06-08T17:53:52.105Z,10.28
2019-06-08T17:56:25.030Z,7.33
2019-06-08T17:58:58.115Z,11.57
2019-06-08T18:01:31.411Z,9.50
2019-06-08T18:04:04.600Z,7.55
2019-06-08T18:06:39.857Z,16.42
2019-06-08T18:09:13.062Z,11.43
2019-06-08T18:11:48.029Z,12.70
2019-06-08T18:14:21.106Z,13.28
2019-06-08T18:16:54.369Z,9.30
2019-06-08T18:19:30.229Z,15.10
2019-06-08T18:22:06.183Z,12.82
2019-06-08T18:24:40.901Z,10.08
2019-06-08T18:27:13.001Z,15.10
2019-06-08T18:29:48.658Z,13.20
2019-06-08T18:32:22.084Z,11.40
2019-06-08T18:34:57.134Z,12.93
2019-06-08T18:37:29.904Z,11.10
2019-06-08T18:40:04.245Z,16.25
2019-06-08T18:42:39.575Z,12.05
2019-06-08T18:45:12.039Z,10.38
2019-06-08T18:47:45.514Z,11.53
2019-06-08T18:50:18.927Z,15.20
2019-06-08T18:52:52.231Z,11.05
2019-06-08T18:55:27.526Z,11.12
2019-06-08T18:57:59.747Z,10.03
2019-06-08T19:00:40.033Z,11.45
2019-06-08T19:03:12.482Z,19.45
2019-06-08T19:05:49.788Z,11.97
2019-06-08T19:08:20.709Z,10.03
2019-06-08T19:10:53.727Z,12.95
2019-06-08T19:13:27.195Z,8.28
2019-06-08T19:16:00.207Z,9.48
2019-06-08T19:18:33.195Z,9.20
2019-06-08T19:21:08.030Z,8.00
2019-06-08T19:23:43.294Z,5.62
2019-06-08T19:26:17.196Z,7.25
2019-06-08T19:28:53.901Z,7.45
2019-06-08T19:31:27.493Z,6.83
2019-06-08T19:34:00.440Z,10.32
2019-06-08T19:36:35.178Z,12.53
2019-06-08T19:39:09.189Z,7.75
2019-06-08T19:41:42.567Z,6.55
2019-06-08T19:44:15.559Z,8.68
2019-06-08T19:46:52.326Z,9.28
2019-06-08T19:49:23.064Z,11.33
2019-06-08T19:51:59.452Z,9.13
2019-06-08T19:54:32.644Z,10.50
2019-06-08T19:57:07.811Z,14.68
2019-06-08T19:59:41.369Z,14.95
2019-06-08T20:02:14.574Z,9.13
2019-06-08T20:04:48.917Z,13.22
2019-06-08T20:07:22.090Z,13.80
2019-06-08T20:09:57.105Z,10.00
2019-06-08T20:12:33.713Z,11.75
2019-06-08T20:15:08.515Z,8.33
2019-06-08T20:17:41.770Z,10.30
2019-06-08T20:20:15.045Z,10.60
2019-06-08T20:22:50.452Z,13.35
2019-06-08T20:25:23.271Z,8.63
2019-06-08T20:27:58.725Z,10.90
2019-06-08T20:30:31.244Z,11.45
2019-06-08T20:33:04.277Z,10.15
2019-06-08T20:35:37.711Z,9.83
2019-06-08T20:38:10.871Z,10.45
2019-06-08T20:40:44.013Z,6.67
2019-06-08T20:43:17.743Z,9.50
2019-06-08T20:45:52.203Z,9.15
2019-06-08T20:48:27.500Z,9.95
2019-06-08T20:51:00.648Z,11.53
2019-06-08T20:53:33.527Z,10.70
2019-06-08T20:56:08.061Z,8.88
2019-06-08T20:58:41.141Z,9.13
2019-06-08T21:01:14.131Z,10.35
2019-06-08T21:03:48.588Z,9.98
2019-06-08T21:06:22.455Z,11.15
2019-06-08T21:08:57.608Z,9.65
2019-06-08T21:11:30.591Z,15.15
2019-06-08T21:14:03.875Z,13.55
2019-06-08T21:16:38.332Z,9.88
2019-06-08T21:19:11.283Z,8.08
2019-06-08T21:21:45.613Z,11.97
2019-06-08T21:24:19.025Z,14.73
2019-06-08T21:26:55.190Z,8.40
2019-06-08T21:29:34.205Z,9.93
2019-06-08T21:32:03.117Z,9.05
2019-06-08T21:34:38.085Z,8.50
2019-06-08T21:37:11.345Z,10.28
2019-06-08T21:39:44.321Z,10.55
2019-06-08T21:42:17.630Z,14.13
2019-06-08T21:44:53.110Z,14.50
2019-06-08T21:47:27.186Z,15.00
2019-06-08T21:50:00.539Z,19.80
2019-06-08T21:52:35.314Z,20.62
2019-06-08T21:55:08.714Z,24.60
2019-06-08T21:57:41.918Z,26.15
2019-06-08T22:00:38.155Z,23.22
2019-06-08T22:02:51.782Z,29.32
2019-06-08T22:05:27.120Z,23.02
2019-06-08T22:08:00.512Z,31.27
2019-06-08T22:10:33.578Z,35.30
2019-06-08T22:13:08.652Z,25.72
2019-06-08T22:15:41.904Z,31.07
2019-06-08T22:18:15.156Z,35.83
2019-06-08T22:20:48.333Z,32.98
2019-06-08T22:23:21.378Z,37.95
2019-06-08T22:25:59.226Z,29.72
2019-06-08T22:28:32.538Z,36.23
2019-06-08T22:31:07.881Z,35.08
2019-06-08T22:33:40.376Z,35.00
2019-06-08T22:36:15.020Z,42.27
2019-06-08T22:38:48.290Z,35.75
2019-06-08T22:41:21.368Z,38.10
2019-06-08T22:43:55.705Z,49.75
2019-06-08T22:46:28.888Z,37.03
2019-06-08T22:49:03.691Z,35.50
2019-06-08T22:51:38.339Z,29.85
2019-06-08T22:54:13.785Z,40.83
2019-06-08T22:56:47.812Z,40.88
2019-06-08T22:59:20.737Z,29.25
2019-06-08T23:01:55.937Z,30.32
2019-06-08T23:04:29.326Z,27.95
2019-06-08T23:07:04.540Z,36.77
2019-06-08T23:09:37.389Z,34.50
2019-06-08T23:12:10.424Z,31.07
2019-06-08T23:14:43.674Z,29.75
2019-06-08T23:17:17.866Z,47.43
2019-06-08T23:19:51.229Z,49.63
2019-06-08T23:22:24.239Z,63.17
2019-06-08T23:24:59.380Z,48.15
2019-06-08T23:27:32.033Z,46.77
2019-06-08T23:30:09.655Z,62.30
2019-06-08T23:32:40.508Z,51.25
2019-06-08T23:35:13.875Z,42.67
2019-06-08T23:37:47.804Z,54.95
2019-06-08T23:40:21.090Z,48.35
2019-06-08T23:42:54.186Z,38.00
2019-06-08T23:45:27.323Z,26.02
2019-06-08T23:48:01.161Z,18.82
2019-06-08T23:50:34.514Z,12.33
2019-06-08T23:53:10.583Z,12.13
2019-06-08T23:55:43.430Z,12.37
2019-06-08T23:58:17.480Z,12.10
